Time;durP1;ratioP1;P1;durP2;ratioP2;P2;SDS_P1;SDS_P2;PMS_P1;PMS_P2;Temp;Humidity;BMP_temperature;BMP_pressure;BME280_temperature;BME280_humidity;BME280_pressure;Samples;Min_cycle;Max_cycle;Signal;HPM_P1;HPM_P2
2022/10/23 00:01:00;;;;;;;;;;;14.90;94.20;;;;;;5046767;28;19929;-70
2022/10/23 00:03:27;;;;;;;;;;;14.80;94.20;;;;;;5045715;28;19928;-72
2022/10/23 00:05:53;;;;;;;;;;;14.80;94.20;;;;;;5041834;28;19936;-70
2022/10/23 00:08:20;;;;;;;;;;;14.80;94.20;;;;;;5046013;28;19928;-70
2022/10/23 00:10:46;;;;;;;;;;;14.80;94.30;;;;;;5044819;28;19940;-70
2022/10/23 00:13:13;;;;;;;;;;;14.70;94.30;;;;;;5045657;28;19929;-71
2022/10/23 00:15:41;;;;;;;;;;;14.80;94.30;;;;;;5044988;28;19936;-72
2022/10/23 00:18:07;;;;;;;;;;;14.70;94.30;;;;;;5045374;28;20428;-71
2022/10/23 00:20:34;;;;;;;;;;;14.70;94.40;;;;;;5046673;28;19928;-70
2022/10/23 00:23:00;;;;;;;;;;;14.70;94.40;;;;;;5046242;28;19938;-70
2022/10/23 00:25:27;;;;;;;;;;;14.70;94.40;;;;;;5036993;28;19929;-69
2022/10/23 00:27:53;;;;;;;;;;;14.70;94.50;;;;;;5045053;28;19933;-71
2022/10/23 00:30:20;;;;;;;;;;;14.60;94.50;;;;;;5043529;28;19936;-70
2022/10/23 00:32:48;;;;;;;;;;;14.60;94.50;;;;;;5039522;28;19933;-71
2022/10/23 00:35:15;;;;;;;;;;;14.60;94.50;;;;;;5043324;28;19929;-70
2022/10/23 00:37:41;;;;;;;;;;;14.60;94.50;;;;;;5041190;28;19928;-70
2022/10/23 00:40:09;;;;;;;;;;;14.60;94.90;;;;;;5038998;28;20563;-71
2022/10/23 00:42:35;;;;;;;;;;;14.50;94.60;;;;;;5046293;28;19929;-70
2022/10/23 00:45:16;;;;;;;;;;;14.50;94.60;;;;;;5046420;28;19935;-70
2022/10/23 00:47:43;;;;;;;;;;;14.50;94.60;;;;;;5038706;28;19931;-71
2022/10/23 00:50:11;;;;;;;;;;;14.50;94.60;;;;;;5043765;28;19931;-72
2022/10/23 00:52:44;;;;;;;;;;;14.50;94.70;;;;;;5044901;28;19925;-71
2022/10/23 00:55:10;;;;;;;;;;;14.50;94.70;;;;;;5044064;28;19932;-71
2022/10/23 00:57:40;;;;;;;;;;;14.40;94.70;;;;;;5041758;28;19929;-73
2022/10/23 01:00:07;;;;;;;;;;;14.50;94.70;;;;;;5043503;28;20368;-70
2022/10/23 01:02:34;;;;;;;;;;;14.40;94.70;;;;;;5043194;28;19929;-70
2022/10/23 01:05:01;;;;;;;;;;;14.40;94.70;;;;;;5044721;28;19943;-70
2022/10/23 01:07:32;;;;;;;;;;;14.40;94.70;;;;;;5044503;28;19933;-71
2022/10/23 01:10:03;;;;;;;;;;;14.40;94.80;;;;;;5041219;28;19939;-70
2022/10/23 01:12:34;;;;;;;;;;;14.30;94.80;;;;;;5042821;28;19935;-71
2022/10/23 01:15:04;;;;;;;;;;;14.30;94.80;;;;;;5046194;28;20723;-70
2022/10/23 01:17:34;;;;;;;;;;;14.30;94.80;;;;;;5041115;28;19928;-70
2022/10/23 01:20:05;;;;;;;;;;;14.20;94.80;;;;;;5038268;28;20796;-71
2022/10/23 01:22:42;;;;;;;;;;;14.30;94.90;;;;;;5043370;28;19932;-71
2022/10/23 01:25:12;;;;;;;;;;;14.20;94.80;;;;;;5039529;28;19929;-71
2022/10/23 01:27:42;;;;;;;;;;;14.20;94.90;;;;;;5042239;28;19928;-71
2022/10/23 01:30:10;;;;;;;;;;;14.20;94.90;;;;;;5043944;28;20405;-70
2022/10/23 01:32:42;;;;;;;;;;;14.20;94.90;;;;;;5043390;28;19929;-71
2022/10/23 01:35:12;;;;;;;;;;;14.20;94.90;;;;;;5040783;28;19929;-72
2022/10/23 01:37:40;;;;;;;;;;;14.20;94.90;;;;;;5041140;28;20332;-71
2022/10/23 01:40:09;;;;;;;;;;;14.20;95.00;;;;;;5039706;28;19929;-70
2022/10/23 01:42:39;;;;;;;;;;;14.10;95.00;;;;;;5042449;28;19928;-71
2022/10/23 01:45:09;;;;;;;;;;;14.10;95.00;;;;;;5045052;28;19961;-72
2022/10/23 01:47:36;;;;;;;;;;;14.10;95.00;;;;;;5040653;28;19929;-70
2022/10/23 01:50:03;;;;;;;;;;;14.10;95.10;;;;;;5045413;28;19929;-70
2022/10/23 01:52:30;;;;;;;;;;;14.00;95.10;;;;;;5043677;28;20594;-71
2022/10/23 01:54:59;;;;;;;;;;;14.10;95.10;;;;;;5045198;28;19928;-69
2022/10/23 01:57:26;;;;;;;;;;;14.10;95.10;;;;;;5034270;28;19933;-72
2022/10/23 01:59:56;;;;;;;;;;;14.00;95.10;;;;;;5043326;28;20561;-70
2022/10/23 02:02:24;;;;;;;;;;;14.00;95.10;;;;;;5048032;28;19932;-70
2022/10/23 02:04:55;;;;;;;;;;;14.00;95.20;;;;;;5044190;28;19929;-70
2022/10/23 02:07:21;;;;;;;;;;;13.90;95.20;;;;;;5043542;28;19929;-70
2022/10/23 02:09:48;;;;;;;;;;;14.00;95.20;;;;;;5044406;28;19933;-70
2022/10/23 02:12:18;;;;;;;;;;;13.90;95.20;;;;;;5042100;28;19935;-72
2022/10/23 02:14:50;;;;;;;;;;;13.90;95.20;;;;;;5043721;28;19968;-70
2022/10/23 02:17:21;;;;;;;;;;;13.90;95.20;;;;;;5043245;28;19932;-70
2022/10/23 02:19:50;;;;;;;;;;;13.90;95.30;;;;;;5041801;28;19931;-72
2022/10/23 02:22:20;;;;;;;;;;;13.90;95.30;;;;;;5040996;28;19932;-71
2022/10/23 02:24:51;;;;;;;;;;;13.90;95.30;;;;;;5043922;28;20435;-70
2022/10/23 02:27:19;;;;;;;;;;;13.90;95.30;;;;;;5042343;28;19929;-71
2022/10/23 02:29:47;;;;;;;;;;;13.80;95.30;;;;;;5046807;28;20605;-70
2022/10/23 02:32:14;;;;;;;;;;;13.80;95.30;;;;;;5043134;28;19929;-70
2022/10/23 02:34:40;;;;;;;;;;;13.80;95.40;;;;;;5043508;28;19932;-70
2022/10/23 02:37:08;;;;;;;;;;;13.80;95.40;;;;;;5041089;28;19933;-71
2022/10/23 02:39:35;;;;;;;;;;;13.80;95.40;;;;;;5041539;28;19929;-71
2022/10/23 02:42:06;;;;;;;;;;;13.70;95.40;;;;;;5044820;28;19929;-70
2022/10/23 02:44:38;;;;;;;;;;;13.80;95.50;;;;;;5043543;28;19935;-72
2022/10/23 02:47:10;;;;;;;;;;;13.80;95.50;;;;;;5041280;28;20476;-71
2022/10/23 02:49:39;;;;;;;;;;;13.80;95.50;;;;;;5040314;28;19928;-70
2022/10/23 02:52:10;;;;;;;;;;;13.70;95.50;;;;;;5042667;28;19929;-71
2022/10/23 02:54:47;;;;;;;;;;;13.70;95.50;;;;;;5042943;28;19928;-71
2022/10/23 02:57:18;;;;;;;;;;;13.70;95.50;;;;;;5043695;28;19935;-71
2022/10/23 02:59:47;;;;;;;;;;;13.70;95.50;;;;;;5039258;28;19971;-70
2022/10/23 03:02:17;;;;;;;;;;;13.70;95.50;;;;;;5038478;28;19936;-70
2022/10/23 03:04:45;;;;;;;;;;;13.70;95.60;;;;;;5041487;28;19929;-71
2022/10/23 03:07:12;;;;;;;;;;;13.60;95.50;;;;;;5043551;28;19928;-70
2022/10/23 03:09:39;;;;;;;;;;;13.70;95.60;;;;;;5041482;28;20524;-71
2022/10/23 03:12:07;;;;;;;;;;;13.60;95.60;;;;;;5041927;28;19929;-70
2022/10/23 03:14:33;;;;;;;;;;;13.60;95.60;;;;;;5042033;28;19955;-72
2022/10/23 03:17:00;;;;;;;;;;;13.60;95.70;;;;;;5042021;28;19943;-70
2022/10/23 03:19:27;;;;;;;;;;;13.60;95.70;;;;;;5041727;28;19928;-70
2022/10/23 03:21:53;;;;;;;;;;;13.60;95.70;;;;;;5041227;28;19928;-72
2022/10/23 03:24:20;;;;;;;;;;;13.60;95.70;;;;;;5040849;28;19937;-71
2022/10/23 03:26:46;;;;;;;;;;;13.60;95.80;;;;;;5042161;28;19929;-70
2022/10/23 03:29:14;;;;;;;;;;;13.60;95.80;;;;;;5041755;28;19928;-70
2022/10/23 03:31:41;;;;;;;;;;;13.60;95.80;;;;;;5041696;28;19928;-70
2022/10/23 03:34:10;;;;;;;;;;;13.60;95.80;;;;;;5042841;28;19929;-70
2022/10/23 03:36:36;;;;;;;;;;;13.60;95.80;;;;;;5031461;28;19929;-71
2022/10/23 03:39:03;;;;;;;;;;;13.60;95.80;;;;;;5038939;28;19929;-70
2022/10/23 03:41:30;;;;;;;;;;;13.50;95.80;;;;;;5043719;28;19964;-71
2022/10/23 03:43:57;;;;;;;;;;;13.50;95.80;;;;;;5039102;28;19940;-70
2022/10/23 03:46:24;;;;;;;;;;;13.50;95.90;;;;;;5041730;28;19928;-71
2022/10/23 03:48:51;;;;;;;;;;;13.50;95.90;;;;;;5041665;28;19929;-71
2022/10/23 03:51:18;;;;;;;;;;;13.50;95.90;;;;;;5043588;28;19929;-70
2022/10/23 03:53:44;;;;;;;;;;;13.50;95.90;;;;;;5042403;28;19937;-70
2022/10/23 03:56:11;;;;;;;;;;;13.50;95.90;;;;;;5039260;28;19929;-70
2022/10/23 03:58:37;;;;;;;;;;;13.50;96.00;;;;;;5041455;28;19928;-70
2022/10/23 04:01:04;;;;;;;;;;;13.50;96.00;;;;;;5034751;28;19929;-71
2022/10/23 04:03:32;;;;;;;;;;;13.50;96.00;;;;;;5046132;28;19924;-70
2022/10/23 04:05:58;;;;;;;;;;;13.50;96.00;;;;;;5042886;28;19936;-71
2022/10/23 04:08:25;;;;;;;;;;;13.50;96.00;;;;;;5035592;28;19931;-71
2022/10/23 04:10:51;;;;;;;;;;;13.50;96.10;;;;;;5037897;28;20958;-70
2022/10/23 04:13:18;;;;;;;;;;;13.50;96.10;;;;;;5043218;28;20385;-70
2022/10/23 04:15:47;;;;;;;;;;;13.50;96.10;;;;;;5035036;28;20750;-70
2022/10/23 04:18:14;;;;;;;;;;;13.50;96.10;;;;;;5044794;28;20448;-71
2022/10/23 04:20:42;;;;;;;;;;;13.50;96.10;;;;;;5042550;28;19936;-69
2022/10/23 04:23:08;;;;;;;;;;;13.50;96.10;;;;;;5035658;28;19936;-71
2022/10/23 04:25:35;;;;;;;;;;;13.50;96.10;;;;;;5041594;28;19944;-70
2022/10/23 04:28:01;;;;;;;;;;;13.50;96.20;;;;;;5039854;28;19929;-69
2022/10/23 04:30:28;;;;;;;;;;;13.50;96.20;;;;;;5033966;28;19929;-70
2022/10/23 04:32:54;;;;;;;;;;;13.50;96.20;;;;;;5037200;28;19928;-69
2022/10/23 04:35:21;;;;;;;;;;;13.50;96.30;;;;;;5038175;28;19936;-72
2022/10/23 04:37:49;;;;;;;;;;;13.40;96.30;;;;;;5035308;28;19929;-70
2022/10/23 04:40:15;;;;;;;;;;;13.50;96.30;;;;;;5040822;28;20665;-71
2022/10/23 04:42:42;;;;;;;;;;;13.40;96.30;;;;;;5046132;28;19936;-70
2022/10/23 04:45:09;;;;;;;;;;;13.40;96.30;;;;;;5039533;28;19928;-71
2022/10/23 04:47:35;;;;;;;;;;;13.40;96.30;;;;;;5040557;28;19925;-70
2022/10/23 04:50:02;;;;;;;;;;;13.50;96.30;;;;;;5040581;28;19928;-70
2022/10/23 04:52:29;;;;;;;;;;;13.40;96.30;;;;;;5049396;28;19975;-71
2022/10/23 04:54:56;;;;;;;;;;;13.40;96.30;;;;;;5044208;28;19928;-70
2022/10/23 04:57:23;;;;;;;;;;;13.40;96.40;;;;;;5044416;28;19933;-71
2022/10/23 04:59:50;;;;;;;;;;;13.50;96.40;;;;;;5047279;28;19933;-72
2022/10/23 05:02:16;;;;;;;;;;;13.50;96.40;;;;;;5044815;28;19932;-71
2022/10/23 05:04:43;;;;;;;;;;;13.50;96.40;;;;;;5045547;28;19933;-70
2022/10/23 05:07:09;;;;;;;;;;;13.50;96.40;;;;;;5045447;28;19929;-71
2022/10/23 05:09:36;;;;;;;;;;;13.40;96.40;;;;;;5042797;28;19951;-71
2022/10/23 05:12:04;;;;;;;;;;;13.40;96.40;;;;;;5042504;28;19928;-70
2022/10/23 05:14:30;;;;;;;;;;;13.50;96.40;;;;;;5044996;28;20432;-71
2022/10/23 05:16:59;;;;;;;;;;;13.50;96.40;;;;;;5046801;28;19929;-71
2022/10/23 05:19:27;;;;;;;;;;;13.40;96.40;;;;;;5043277;28;19936;-71
2022/10/23 05:21:54;;;;;;;;;;;13.40;96.40;;;;;;5045544;28;19928;-72
2022/10/23 05:24:21;;;;;;;;;;;13.40;96.40;;;;;;5038524;28;19928;-71
2022/10/23 05:26:50;;;;;;;;;;;13.40;96.60;;;;;;5044980;28;19929;-71
2022/10/23 05:29:18;;;;;;;;;;;13.50;96.50;;;;;;5044896;28;19929;-70
2022/10/23 05:31:45;;;;;;;;;;;13.40;96.50;;;;;;5040487;28;20416;-70
2022/10/23 05:34:12;;;;;;;;;;;13.40;96.50;;;;;;5044896;28;20583;-70
2022/10/23 05:36:39;;;;;;;;;;;13.40;96.50;;;;;;5043356;28;19940;-71
2022/10/23 05:39:05;;;;;;;;;;;13.40;96.50;;;;;;5039595;28;19936;-72
2022/10/23 05:41:32;;;;;;;;;;;13.40;96.50;;;;;;5045332;28;19929;-71
2022/10/23 05:43:58;;;;;;;;;;;13.50;96.50;;;;;;5038545;28;19937;-70
2022/10/23 05:46:27;;;;;;;;;;;13.40;96.50;;;;;;5042484;28;19936;-71
2022/10/23 05:48:54;;;;;;;;;;;13.40;96.50;;;;;;5043768;28;20010;-70
2022/10/23 05:51:22;;;;;;;;;;;13.40;96.50;;;;;;5042847;28;19933;-71
2022/10/23 05:53:48;;;;;;;;;;;13.50;96.50;;;;;;5044247;28;19964;-70
2022/10/23 05:56:15;;;;;;;;;;;13.40;96.50;;;;;;5043651;28;20023;-70
2022/10/23 05:58:41;;;;;;;;;;;13.40;96.50;;;;;;5043468;28;19933;-68
2022/10/23 06:01:09;;;;;;;;;;;13.40;96.50;;;;;;5033559;28;19925;-71
2022/10/23 06:03:37;;;;;;;;;;;13.40;96.50;;;;;;5041600;28;19925;-69
2022/10/23 06:06:04;;;;;;;;;;;13.40;96.50;;;;;;5044817;28;19925;-70
2022/10/23 06:08:32;;;;;;;;;;;13.40;96.60;;;;;;5041200;28;19940;-71
2022/10/23 06:10:58;;;;;;;;;;;13.40;96.60;;;;;;5038712;28;19933;-70
2022/10/23 06:13:25;;;;;;;;;;;13.40;96.60;;;;;;5043734;28;19936;-71
2022/10/23 06:15:51;;;;;;;;;;;13.40;96.60;;;;;;5042495;28;19933;-70
2022/10/23 06:18:18;;;;;;;;;;;13.40;96.60;;;;;;5042357;28;19928;-70
2022/10/23 06:20:46;;;;;;;;;;;13.40;96.60;;;;;;5044168;28;19929;-70
2022/10/23 06:23:12;;;;;;;;;;;13.40;96.60;;;;;;5042954;28;19929;-71
2022/10/23 06:25:39;;;;;;;;;;;13.30;96.60;;;;;;5038040;28;20389;-71
2022/10/23 06:28:05;;;;;;;;;;;13.40;96.60;;;;;;5042873;28;19928;-70
2022/10/23 06:30:32;;;;;;;;;;;13.30;96.60;;;;;;5040503;28;20404;-70
2022/10/23 06:32:58;;;;;;;;;;;13.30;96.60;;;;;;5038199;28;20546;-70
2022/10/23 06:35:25;;;;;;;;;;;13.40;96.60;;;;;;5044165;28;20511;-71
2022/10/23 06:37:53;;;;;;;;;;;13.40;96.60;;;;;;5043392;28;19933;-71
2022/10/23 06:40:19;;;;;;;;;;;13.40;96.60;;;;;;5040176;28;20656;-70
2022/10/23 06:42:46;;;;;;;;;;;13.30;96.60;;;;;;5044733;28;20428;-70
2022/10/23 06:45:12;;;;;;;;;;;13.30;96.60;;;;;;5042981;28;19935;-69
2022/10/23 06:47:39;;;;;;;;;;;13.30;96.60;;;;;;5038663;28;20417;-72
2022/10/23 06:50:06;;;;;;;;;;;13.30;96.60;;;;;;5044310;28;20584;-71
2022/10/23 06:52:32;;;;;;;;;;;13.30;96.60;;;;;;5043468;28;20534;-71
2022/10/23 06:55:00;;;;;;;;;;;13.30;96.60;;;;;;5040709;28;20204;-71
2022/10/23 06:57:27;;;;;;;;;;;13.30;96.60;;;;;;5040738;28;19940;-70
2022/10/23 06:59:53;;;;;;;;;;;13.30;96.60;;;;;;5042863;28;19935;-70
2022/10/23 07:02:20;;;;;;;;;;;13.30;96.60;;;;;;5042660;28;20356;-69
2022/10/23 07:04:46;;;;;;;;;;;13.30;96.60;;;;;;5043486;28;19933;-70
2022/10/23 07:07:13;;;;;;;;;;;13.30;97.00;;;;;;5042866;28;19932;-71
2022/10/23 07:09:39;;;;;;;;;;;13.30;96.70;;;;;;5039901;28;19929;-71
2022/10/23 07:12:07;;;;;;;;;;;13.30;96.70;;;;;;5041983;28;19928;-70
2022/10/23 07:14:34;;;;;;;;;;;13.30;96.70;;;;;;5042850;28;19933;-70
2022/10/23 07:17:00;;;;;;;;;;;13.30;96.70;;;;;;5042984;28;20300;-72
2022/10/23 07:19:27;;;;;;;;;;;13.30;96.70;;;;;;5042336;28;19929;-71
2022/10/23 07:21:54;;;;;;;;;;;13.30;96.70;;;;;;5042864;28;19933;-70
2022/10/23 07:24:20;;;;;;;;;;;13.30;96.70;;;;;;5042362;28;20309;-70
2022/10/23 07:26:47;;;;;;;;;;;13.30;96.70;;;;;;5043712;28;19932;-70
2022/10/23 07:29:15;;;;;;;;;;;13.30;96.70;;;;;;5039261;28;19940;-71
2022/10/23 07:31:41;;;;;;;;;;;13.30;97.00;;;;;;5039300;28;19929;-70
2022/10/23 07:34:09;;;;;;;;;;;13.30;96.70;;;;;;5039438;28;19933;-71
2022/10/23 07:36:35;;;;;;;;;;;13.30;96.70;;;;;;5045253;28;20316;-69
2022/10/23 07:39:02;;;;;;;;;;;13.20;96.70;;;;;;5041879;28;20763;-70
2022/10/23 07:41:29;;;;;;;;;;;13.30;96.70;;;;;;5042700;28;19924;-71
2022/10/23 07:43:55;;;;;;;;;;;13.20;96.70;;;;;;5040861;28;19925;-70
2022/10/23 07:46:23;;;;;;;;;;;13.30;96.70;;;;;;5041183;28;19940;-71
2022/10/23 07:48:49;;;;;;;;;;;13.30;96.80;;;;;;5041697;28;19936;-71
2022/10/23 07:51:16;;;;;;;;;;;13.20;96.70;;;;;;5041628;28;19933;-70
2022/10/23 07:53:43;;;;;;;;;;;13.30;96.70;;;;;;5042769;28;19936;-70
2022/10/23 07:56:12;;;;;;;;;;;13.30;96.70;;;;;;5038331;28;19925;-71
2022/10/23 07:58:38;;;;;;;;;;;13.30;96.80;;;;;;5042245;28;20289;-70
2022/10/23 08:01:12;;;;;;;;;;;13.30;96.70;;;;;;5037269;28;19963;-70
2022/10/23 08:03:39;;;;;;;;;;;13.30;96.70;;;;;;5034381;28;21683;-70
2022/10/23 08:06:06;;;;;;;;;;;13.30;96.70;;;;;;5043485;28;19963;-71
2022/10/23 08:08:33;;;;;;;;;;;13.30;96.70;;;;;;5038881;28;19935;-70
2022/10/23 08:10:59;;;;;;;;;;;13.30;96.80;;;;;;5038335;28;19933;-70
2022/10/23 08:13:26;;;;;;;;;;;13.30;96.70;;;;;;5043006;28;19933;-70
2022/10/23 08:15:53;;;;;;;;;;;13.30;96.70;;;;;;5043542;28;19935;-71
2022/10/23 08:18:19;;;;;;;;;;;13.30;96.70;;;;;;5039174;28;19928;-71
2022/10/23 08:20:49;;;;;;;;;;;13.40;96.70;;;;;;5043706;28;19936;-70
2022/10/23 08:23:17;;;;;;;;;;;13.30;96.70;;;;;;5046675;28;20286;-70
2022/10/23 08:25:44;;;;;;;;;;;13.40;96.70;;;;;;5043618;28;19928;-71
2022/10/23 08:28:10;;;;;;;;;;;13.40;96.70;;;;;;5041856;28;19929;-70
2022/10/23 08:30:37;;;;;;;;;;;13.40;96.70;;;;;;5042749;28;19929;-70
2022/10/23 08:33:04;;;;;;;;;;;13.40;96.70;;;;;;5042581;28;19929;-71
2022/10/23 08:35:31;;;;;;;;;;;13.40;96.80;;;;;;5042561;28;19940;-70
2022/10/23 08:37:59;;;;;;;;;;;13.40;97.10;;;;;;5040114;28;19936;-70
2022/10/23 08:40:25;;;;;;;;;;;13.40;96.80;;;;;;5038140;28;19928;-71
2022/10/23 08:42:57;;;;;;;;;;;13.40;96.80;;;;;;5038834;28;19936;-70
2022/10/23 08:45:28;;;;;;;;;;;13.40;96.80;;;;;;5042469;28;19935;-72
2022/10/23 08:47:56;;;;;;;;;;;13.40;96.80;;;;;;5040245;28;19929;-70
2022/10/23 08:50:25;;;;;;;;;;;13.40;96.80;;;;;;5042977;28;19932;-70
2022/10/23 08:52:53;;;;;;;;;;;13.40;96.80;;;;;;5040161;28;20447;-72
2022/10/23 08:55:23;;;;;;;;;;;13.50;96.90;;;;;;5043551;28;19937;-70
2022/10/23 08:57:53;;;;;;;;;;;13.40;96.90;;;;;;5040709;28;20416;-71
2022/10/23 09:00:20;;;;;;;;;;;13.50;96.90;;;;;;5035875;28;20756;-71
2022/10/23 09:02:47;;;;;;;;;;;13.50;96.80;;;;;;5042635;28;20302;-69
2022/10/23 09:05:16;;;;;;;;;;;13.50;96.80;;;;;;5043342;28;20573;-71
2022/10/23 09:07:50;;;;;;;;;;;13.60;96.80;;;;;;5044222;28;20385;-71
2022/10/23 09:10:24;;;;;;;;;;;13.50;96.80;;;;;;5045478;28;19964;-70
2022/10/23 09:12:52;;;;;;;;;;;13.60;96.80;;;;;;5046247;28;19944;-70
2022/10/23 09:15:24;;;;;;;;;;;13.70;96.90;;;;;;5043100;28;19935;-69
2022/10/23 09:17:55;;;;;;;;;;;13.60;97.20;;;;;;5044163;28;19933;-70
2022/10/23 09:20:22;;;;;;;;;;;13.70;96.90;;;;;;5047192;28;19931;-70
2022/10/23 09:22:50;;;;;;;;;;;13.70;96.80;;;;;;5043781;28;20361;-71
2022/10/23 09:25:18;;;;;;;;;;;13.70;96.70;;;;;;5039923;28;20309;-71
2022/10/23 09:27:46;;;;;;;;;;;13.80;96.60;;;;;;5045575;28;19929;-69
2022/10/23 09:30:24;;;;;;;;;;;13.90;96.60;;;;;;5042866;28;19933;-70
2022/10/23 09:32:51;;;;;;;;;;;13.90;96.60;;;;;;5043707;28;19940;-70
2022/10/23 09:35:21;;;;;;;;;;;14.00;96.50;;;;;;5043442;28;19978;-69
2022/10/23 09:37:51;;;;;;;;;;;14.10;96.40;;;;;;5042033;28;19976;-71
2022/10/23 09:40:21;;;;;;;;;;;14.10;96.30;;;;;;5042192;28;19932;-71
2022/10/23 09:42:52;;;;;;;;;;;14.20;96.20;;;;;;5043905;28;19935;-70
2022/10/23 09:45:27;;;;;;;;;;;14.20;96.10;;;;;;5040304;28;19928;-70
2022/10/23 09:48:10;;;;;;;;;;;14.30;95.90;;;;;;5041070;28;19932;-70
2022/10/23 09:50:37;;;;;;;;;;;14.40;95.80;;;;;;5042885;28;19929;-71
2022/10/23 09:53:04;;;;;;;;;;;14.50;95.80;;;;;;5042470;28;19933;-72
2022/10/23 09:55:30;;;;;;;;;;;14.50;95.70;;;;;;5045715;28;19925;-70
2022/10/23 09:57:57;;;;;;;;;;;14.60;95.70;;;;;;5041953;28;19936;-72
2022/10/23 10:00:24;;;;;;;;;;;14.60;95.70;;;;;;5043029;28;19932;-71
2022/10/23 10:02:56;;;;;;;;;;;14.70;95.60;;;;;;5037092;28;19979;-71
2022/10/23 10:05:24;;;;;;;;;;;14.70;95.60;;;;;;5044985;28;19935;-75
2022/10/23 10:07:58;;;;;;;;;;;14.80;95.50;;;;;;5042820;28;19928;-71
2022/10/23 10:10:26;;;;;;;;;;;14.80;95.50;;;;;;5041331;28;19936;-73
2022/10/23 10:12:55;;;;;;;;;;;14.80;95.40;;;;;;5044077;28;19933;-72
2022/10/23 10:15:25;;;;;;;;;;;14.80;95.30;;;;;;5044731;28;19929;-72
2022/10/23 10:17:56;;;;;;;;;;;14.90;95.30;;;;;;5037888;28;19936;-72
2022/10/23 10:20:41;;;;;;;;;;;14.90;95.30;;;;;;5044335;28;19929;-71
2022/10/23 10:23:14;;;;;;;;;;;14.90;95.30;;;;;;5042865;28;19936;-71
2022/10/23 10:25:44;;;;;;;;;;;14.90;95.30;;;;;;5036656;28;19936;-71
2022/10/23 10:28:21;;;;;;;;;;;14.90;95.30;;;;;;5042774;28;19936;-71
2022/10/23 10:30:51;;;;;;;;;;;15.00;95.30;;;;;;5042694;28;19935;-70
2022/10/23 10:33:21;;;;;;;;;;;15.00;95.20;;;;;;5038385;28;19940;-70
2022/10/23 10:35:52;;;;;;;;;;;15.00;95.10;;;;;;5042438;28;19929;-72
2022/10/23 10:38:34;;;;;;;;;;;15.10;95.10;;;;;;5042837;28;19932;-72
2022/10/23 10:41:20;;;;;;;;;;;15.10;95.00;;;;;;5042891;28;20325;-72
2022/10/23 10:43:52;;;;;;;;;;;15.10;95.00;;;;;;5042473;28;19967;-71
2022/10/23 10:46:22;;;;;;;;;;;15.20;94.90;;;;;;5039416;28;19929;-71
2022/10/23 10:48:51;;;;;;;;;;;15.20;94.90;;;;;;5043342;28;19929;-70
2022/10/23 10:51:21;;;;;;;;;;;15.30;94.90;;;;;;5042803;28;19925;-72
2022/10/23 10:53:59;;;;;;;;;;;15.30;94.70;;;;;;5044526;28;19925;-71
2022/10/23 10:56:27;;;;;;;;;;;15.40;94.70;;;;;;5035870;28;19925;-73
2022/10/23 10:58:56;;;;;;;;;;;15.50;94.60;;;;;;5044286;28;19929;-73
2022/10/23 11:01:25;;;;;;;;;;;15.50;94.50;;;;;;5036562;28;19933;-71
2022/10/23 11:03:54;;;;;;;;;;;15.60;94.40;;;;;;5042149;28;19933;-71
2022/10/23 11:06:24;;;;;;;;;;;15.70;94.40;;;;;;5041274;28;19929;-71
2022/10/23 11:08:50;;;;;;;;;;;15.70;94.30;;;;;;5041609;28;20427;-72
2022/10/23 11:11:19;;;;;;;;;;;15.70;94.20;;;;;;5037551;28;20659;-71
2022/10/23 11:13:45;;;;;;;;;;;15.80;94.20;;;;;;5043495;28;19935;-71
2022/10/23 11:16:14;;;;;;;;;;;15.80;94.10;;;;;;5042362;28;19929;-71
2022/10/23 11:18:41;;;;;;;;;;;15.80;94.10;;;;;;5044063;28;19935;-71
2022/10/23 11:21:12;;;;;;;;;;;15.90;94.10;;;;;;5044464;28;19932;-72
2022/10/23 11:23:47;;;;;;;;;;;15.90;94.10;;;;;;5044031;28;19928;-72
2022/10/23 11:26:24;;;;;;;;;;;16.00;94.10;;;;;;5036308;28;19937;-73
2022/10/23 11:29:02;;;;;;;;;;;16.00;94.10;;;;;;5043423;28;19935;-72
2022/10/23 11:31:34;;;;;;;;;;;16.00;94.00;;;;;;5038618;28;19929;-71
2022/10/23 11:34:08;;;;;;;;;;;16.10;94.00;;;;;;5042691;28;20416;-72
2022/10/23 11:36:42;;;;;;;;;;;16.10;94.00;;;;;;5039819;28;19929;-71
2022/10/23 11:39:15;;;;;;;;;;;16.10;94.00;;;;;;5040127;28;19929;-73
2022/10/23 11:41:47;;;;;;;;;;;16.10;94.00;;;;;;5042272;28;20266;-73
2022/10/23 11:44:23;;;;;;;;;;;16.20;94.00;;;;;;5042139;28;19976;-72
2022/10/23 11:46:59;;;;;;;;;;;16.20;94.00;;;;;;5040673;28;19928;-72
2022/10/23 11:49:26;;;;;;;;;;;16.20;94.00;;;;;;5046837;28;20228;-72
2022/10/23 11:51:59;;;;;;;;;;;16.30;94.00;;;;;;5046150;28;19937;-72
2022/10/23 11:54:27;;;;;;;;;;;16.30;94.00;;;;;;5043652;28;19936;-72
2022/10/23 11:56:55;;;;;;;;;;;16.30;93.90;;;;;;5043911;28;19933;-73
2022/10/23 11:59:23;;;;;;;;;;;16.40;93.90;;;;;;5051099;28;19932;-72
2022/10/23 12:01:51;;;;;;;;;;;16.50;93.80;;;;;;5049290;28;19928;-71
2022/10/23 12:04:21;;;;;;;;;;;16.50;93.60;;;;;;5051469;28;19935;-71
2022/10/23 12:06:49;;;;;;;;;;;16.60;93.60;;;;;;5048841;28;20340;-71
2022/10/23 12:09:23;;;;;;;;;;;16.60;93.50;;;;;;5045275;28;19932;-71
2022/10/23 12:12:02;;;;;;;;;;;16.70;93.40;;;;;;5044326;28;19928;-71
2022/10/23 12:14:30;;;;;;;;;;;16.80;93.30;;;;;;5045480;28;19936;-71
2022/10/23 12:16:57;;;;;;;;;;;16.80;93.60;;;;;;5044269;28;20636;-71
2022/10/23 12:19:25;;;;;;;;;;;16.80;93.10;;;;;;5044311;28;19936;-72
2022/10/23 12:21:52;;;;;;;;;;;16.90;93.10;;;;;;5042060;28;19928;-71
2022/10/23 12:24:30;;;;;;;;;;;16.90;93.10;;;;;;5046676;28;20091;-70
2022/10/23 12:27:06;;;;;;;;;;;16.90;93.10;;;;;;5042117;28;19925;-70
2022/10/23 12:29:39;;;;;;;;;;;17.00;93.10;;;;;;5045372;28;19925;-71
2022/10/23 12:32:16;;;;;;;;;;;17.00;93.10;;;;;;5038671;28;19929;-71
2022/10/23 12:34:49;;;;;;;;;;;17.00;93.00;;;;;;5038836;28;19929;-71
2022/10/23 12:37:27;;;;;;;;;;;17.10;93.00;;;;;;5038811;28;20412;-71
2022/10/23 12:39:55;;;;;;;;;;;17.20;92.90;;;;;;5040799;28;19928;-72
2022/10/23 12:42:24;;;;;;;;;;;17.30;92.80;;;;;;5039402;28;20727;-70
2022/10/23 12:44:58;;;;;;;;;;;17.40;92.70;;;;;;5043116;28;20477;-70
2022/10/23 12:47:24;;;;;;;;;;;17.40;92.60;;;;;;5041145;28;19936;-70
2022/10/23 12:49:51;;;;;;;;;;;17.50;92.50;;;;;;5043994;28;19940;-70
2022/10/23 12:52:18;;;;;;;;;;;17.50;92.30;;;;;;5042670;28;19929;-70
2022/10/23 12:54:45;;;;;;;;;;;17.60;92.20;;;;;;5045284;28;19928;-71
2022/10/23 12:57:18;;;;;;;;;;;17.70;92.10;;;;;;5043147;28;19929;-70
2022/10/23 12:59:46;;;;;;;;;;;17.70;92.00;;;;;;5044692;28;19929;-71
2022/10/23 13:02:13;;;;;;;;;;;17.80;91.90;;;;;;5043248;28;19929;-71
2022/10/23 13:04:40;;;;;;;;;;;17.90;91.90;;;;;;5035709;28;19936;-73
2022/10/23 13:07:07;;;;;;;;;;;17.90;91.90;;;;;;5042646;28;20717;-71
2022/10/23 13:09:34;;;;;;;;;;;18.00;91.70;;;;;;5042553;28;19935;-71
2022/10/23 13:12:02;;;;;;;;;;;18.00;91.80;;;;;;5043690;28;20332;-71
2022/10/23 13:14:30;;;;;;;;;;;18.00;91.80;;;;;;5047843;28;19933;-73
2022/10/23 13:17:02;;;;;;;;;;;18.00;91.80;;;;;;5041768;28;19936;-71
2022/10/23 13:19:29;;;;;;;;;;;18.10;91.80;;;;;;5044817;28;19928;-71
2022/10/23 13:21:55;;;;;;;;;;;18.10;91.80;;;;;;5040321;28;20374;-71
2022/10/23 13:24:22;;;;;;;;;;;18.10;91.80;;;;;;5040634;28;19925;-70
2022/10/23 13:26:49;;;;;;;;;;;18.10;91.80;;;;;;5034135;28;19929;-70
2022/10/23 13:29:19;;;;;;;;;;;18.20;91.80;;;;;;5041043;28;20423;-73
2022/10/23 13:31:45;;;;;;;;;;;18.20;91.80;;;;;;5037571;28;19933;-71
2022/10/23 13:34:18;;;;;;;;;;;18.20;91.80;;;;;;5044287;28;20412;-70
2022/10/23 13:36:55;;;;;;;;;;;18.30;91.80;;;;;;5041922;28;20360;-70
2022/10/23 13:39:23;;;;;;;;;;;18.30;91.70;;;;;;5039174;28;19936;-71
2022/10/23 13:41:50;;;;;;;;;;;18.40;91.70;;;;;;5038016;28;20411;-72
2022/10/23 13:44:17;;;;;;;;;;;18.40;91.60;;;;;;5041705;28;19936;-71
2022/10/23 13:46:44;;;;;;;;;;;18.50;91.50;;;;;;5041703;28;20452;-71
2022/10/23 13:49:11;;;;;;;;;;;18.50;91.50;;;;;;5044809;28;19933;-71
2022/10/23 13:51:40;;;;;;;;;;;18.60;91.50;;;;;;5038678;28;19940;-72
2022/10/23 13:54:10;;;;;;;;;;;18.60;91.50;;;;;;5038462;28;20011;-71
2022/10/23 13:56:37;;;;;;;;;;;18.60;91.50;;;;;;5043125;28;19939;-69
2022/10/23 13:59:03;;;;;;;;;;;18.60;91.50;;;;;;5042571;28;19952;-72
2022/10/23 14:01:31;;;;;;;;;;;18.60;91.50;;;;;;5042001;28;20046;-70
2022/10/23 14:03:59;;;;;;;;;;;18.70;91.50;;;;;;5043987;28;19933;-71
2022/10/23 14:06:25;;;;;;;;;;;18.60;91.60;;;;;;5043927;28;19933;-72
2022/10/23 14:08:53;;;;;;;;;;;18.70;91.70;;;;;;5043013;28;19936;-71
2022/10/23 14:11:20;;;;;;;;;;;18.70;91.60;;;;;;5038226;28;20410;-71
2022/10/23 14:13:47;;;;;;;;;;;18.70;91.60;;;;;;5046062;28;19929;-71
2022/10/23 14:16:15;;;;;;;;;;;18.70;91.60;;;;;;5044644;28;20549;-71
2022/10/23 14:18:41;;;;;;;;;;;18.70;91.60;;;;;;5042837;28;19936;-73
2022/10/23 14:21:10;;;;;;;;;;;18.70;91.70;;;;;;5044132;28;19929;-72
2022/10/23 14:23:37;;;;;;;;;;;18.70;91.70;;;;;;5035078;28;19929;-71